sensor_id;sensor_type;location;lat;lon;timestamp;pressure;altitude;pressure_sealevel;temperature;humidity
61914;BME280;50095;53.336;-1.488;2022-07-29T00:00:10;100251.55;;;21.88;43.74
61914;BME280;50095;53.336;-1.488;2022-07-29T00:02:38;100252.38;;;21.99;40.62
61914;BME280;50095;53.336;-1.488;2022-07-29T00:05:06;100253.77;;;22.33;43.13
61914;BME280;50095;53.336;-1.488;2022-07-29T00:07:34;100248.55;;;22.15;40.92
61914;BME280;50095;53.336;-1.488;2022-07-29T00:10:02;100249.09;;;21.54;42.28
61914;BME280;50095;53.336;-1.488;2022-07-29T00:12:30;100249.64;;;21.59;44.17
61914;BME280;50095;53.336;-1.488;2022-07-29T00:14:58;100248.24;;;21.29;42.06
61914;BME280;50095;53.336;-1.488;2022-07-29T00:17:26;100250.68;;;21.36;45.21
61914;BME280;50095;53.336;-1.488;2022-07-29T00:19:53;100245.17;;;20.98;42.14
61914;BME280;50095;53.336;-1.488;2022-07-29T00:22:20;100246.82;;;21.49;42.80
61914;BME280;50095;53.336;-1.488;2022-07-29T00:24:48;100247.63;;;21.96;42.49
61914;BME280;50095;53.336;-1.488;2022-07-29T00:27:16;100249.14;;;21.58;43.53
61914;BME280;50095;53.336;-1.488;2022-07-29T00:29:43;100248.00;;;21.43;42.97
61914;BME280;50095;53.336;-1.488;2022-07-29T00:32:11;100249.71;;;21.39;43.29
61914;BME280;50095;53.336;-1.488;2022-07-29T00:34:38;100245.81;;;21.58;44.78
61914;BME280;50095;53.336;-1.488;2022-07-29T00:37:06;100247.63;;;21.14;44.25
61914;BME280;50095;53.336;-1.488;2022-07-29T00:39:34;100246.38;;;21.13;45.87
61914;BME280;50095;53.336;-1.488;2022-07-29T00:42:03;100248.77;;;21.84;44.97
61914;BME280;50095;53.336;-1.488;2022-07-29T00:44:32;100244.73;;;21.64;42.86
61914;BME280;50095;53.336;-1.488;2022-07-29T00:47:03;100249.83;;;21.53;41.51
61914;BME280;50095;53.336;-1.488;2022-07-29T00:49:30;100248.39;;;21.07;43.54
61914;BME280;50095;53.336;-1.488;2022-07-29T00:51:58;100251.80;;;21.43;43.96
61914;BME280;50095;53.336;-1.488;2022-07-29T00:54:27;100252.43;;;21.31;44.96
61914;BME280;50095;53.336;-1.488;2022-07-29T00:56:56;100249.99;;;20.84;43.88
61914;BME280;50095;53.336;-1.488;2022-07-29T00:59:25;100252.22;;;21.18;45.89
61914;BME280;50095;53.336;-1.488;2022-07-29T01:01:54;100251.31;;;21.19;45.39
61914;BME280;50095;53.336;-1.488;2022-07-29T01:04:21;100251.03;;;21.40;45.65
61914;BME280;50095;53.336;-1.488;2022-07-29T01:06:49;100250.29;;;21.51;42.60
61914;BME280;50095;53.336;-1.488;2022-07-29T01:09:17;100249.87;;;21.41;44.38
61914;BME280;50095;53.336;-1.488;2022-07-29T01:11:46;100250.21;;;21.37;42.15
61914;BME280;50095;53.336;-1.488;2022-07-29T01:14:14;100246.43;;;21.67;41.37
61914;BME280;50095;53.336;-1.488;2022-07-29T01:16:49;100244.01;;;21.14;41.88
61914;BME280;50095;53.336;-1.488;2022-07-29T01:19:39;100245.06;;;21.13;45.54
61914;BME280;50095;53.336;-1.488;2022-07-29T01:22:25;100244.89;;;21.21;42.93
61914;BME280;50095;53.336;-1.488;2022-07-29T01:25:08;100245.61;;;20.70;42.73
61914;BME280;50095;53.336;-1.488;2022-07-29T01:27:45;100243.21;;;20.91;43.31
61914;BME280;50095;53.336;-1.488;2022-07-29T01:30:15;100242.31;;;21.30;42.47
61914;BME280;50095;53.336;-1.488;2022-07-29T01:32:47;100237.59;;;21.81;42.05
61914;BME280;50095;53.336;-1.488;2022-07-29T01:35:21;100239.24;;;21.31;41.41
61914;BME280;50095;53.336;-1.488;2022-07-29T01:37:57;100244.27;;;21.73;42.24
61914;BME280;50095;53.336;-1.488;2022-07-29T01:40:33;100243.62;;;21.67;43.15
61914;BME280;50095;53.336;-1.488;2022-07-29T01:43:08;100244.71;;;21.36;45.37
61914;BME280;50095;53.336;-1.488;2022-07-29T01:45:40;100242.09;;;20.51;44.84
61914;BME280;50095;53.336;-1.488;2022-07-29T01:48:13;100240.79;;;21.34;45.38
61914;BME280;50095;53.336;-1.488;2022-07-29T01:50:48;100244.74;;;21.28;45.82
61914;BME280;50095;53.336;-1.488;2022-07-29T01:53:21;100244.85;;;20.80;45.92
61914;BME280;50095;53.336;-1.488;2022-07-29T01:55:53;100250.34;;;21.26;46.31
61914;BME280;50095;53.336;-1.488;2022-07-29T01:58:23;100246.85;;;20.97;45.94
61914;BME280;50095;53.336;-1.488;2022-07-29T02:00:52;100245.84;;;21.29;46.45
61914;BME280;50095;53.336;-1.488;2022-07-29T02:03:21;100244.51;;;20.89;46.31
61914;BME280;50095;53.336;-1.488;2022-07-29T02:05:51;100245.07;;;21.12;46.50
61914;BME280;50095;53.336;-1.488;2022-07-29T02:08:21;100240.53;;;20.90;46.41
61914;BME280;50095;53.336;-1.488;2022-07-29T02:10:50;100237.03;;;20.81;46.66
61914;BME280;50095;53.336;-1.488;2022-07-29T02:13:18;100238.19;;;20.93;46.51
61914;BME280;50095;53.336;-1.488;2022-07-29T02:15:50;100240.23;;;21.01;46.25
61914;BME280;50095;53.336;-1.488;2022-07-29T02:18:20;100238.13;;;21.49;44.53
61914;BME280;50095;53.336;-1.488;2022-07-29T02:20:53;100235.95;;;21.20;46.03
61914;BME280;50095;53.336;-1.488;2022-07-29T02:23:24;100235.70;;;21.15;46.65
61914;BME280;50095;53.336;-1.488;2022-07-29T02:25:56;100235.29;;;21.06;46.86
61914;BME280;50095;53.336;-1.488;2022-07-29T02:28:26;100240.08;;;20.96;46.60
61914;BME280;50095;53.336;-1.488;2022-07-29T02:30:57;100238.81;;;20.81;46.84
61914;BME280;50095;53.336;-1.488;2022-07-29T02:33:25;100244.23;;;21.03;46.38
61914;BME280;50095;53.336;-1.488;2022-07-29T02:35:55;100244.16;;;20.87;46.83
61914;BME280;50095;53.336;-1.488;2022-07-29T02:38:25;100244.68;;;20.94;46.41
61914;BME280;50095;53.336;-1.488;2022-07-29T02:40:55;100248.38;;;21.08;46.34
61914;BME280;50095;53.336;-1.488;2022-07-29T02:43:25;100247.58;;;21.16;45.97
61914;BME280;50095;53.336;-1.488;2022-07-29T02:45:53;100246.88;;;21.26;46.57
61914;BME280;50095;53.336;-1.488;2022-07-29T02:48:36;100244.28;;;21.30;46.94
61914;BME280;50095;53.336;-1.488;2022-07-29T02:51:08;100248.25;;;20.76;47.05
61914;BME280;50095;53.336;-1.488;2022-07-29T02:53:42;100248.28;;;21.02;47.14
61914;BME280;50095;53.336;-1.488;2022-07-29T02:56:13;100249.70;;;20.94;47.27
61914;BME280;50095;53.336;-1.488;2022-07-29T02:58:45;100249.99;;;21.15;47.37
61914;BME280;50095;53.336;-1.488;2022-07-29T03:01:16;100248.33;;;20.99;46.27
61914;BME280;50095;53.336;-1.488;2022-07-29T03:03:48;100244.05;;;21.00;45.43
61914;BME280;50095;53.336;-1.488;2022-07-29T03:06:18;100244.28;;;21.69;44.41
61914;BME280;50095;53.336;-1.488;2022-07-29T03:08:47;100244.56;;;21.53;46.14
61914;BME280;50095;53.336;-1.488;2022-07-29T03:11:16;100239.89;;;20.91;46.42
61914;BME280;50095;53.336;-1.488;2022-07-29T03:13:44;100240.46;;;21.24;46.27
61914;BME280;50095;53.336;-1.488;2022-07-29T03:16:12;100243.48;;;21.29;45.62
61914;BME280;50095;53.336;-1.488;2022-07-29T03:18:40;100241.33;;;21.03;46.37
61914;BME280;50095;53.336;-1.488;2022-07-29T03:21:08;100238.32;;;21.11;46.73
61914;BME280;50095;53.336;-1.488;2022-07-29T03:23:35;100242.59;;;21.15;47.14
61914;BME280;50095;53.336;-1.488;2022-07-29T03:26:03;100243.96;;;21.21;46.60
61914;BME280;50095;53.336;-1.488;2022-07-29T03:28:30;100246.05;;;20.68;47.13
61914;BME280;50095;53.336;-1.488;2022-07-29T03:30:58;100243.90;;;21.15;47.22
61914;BME280;50095;53.336;-1.488;2022-07-29T03:33:26;100246.21;;;20.60;47.43
61914;BME280;50095;53.336;-1.488;2022-07-29T03:35:53;100249.63;;;21.01;47.14
61914;BME280;50095;53.336;-1.488;2022-07-29T03:38:23;100248.24;;;20.89;47.40
61914;BME280;50095;53.336;-1.488;2022-07-29T03:40:54;100248.17;;;21.16;47.34
61914;BME280;50095;53.336;-1.488;2022-07-29T03:43:23;100247.84;;;21.08;47.33
61914;BME280;50095;53.336;-1.488;2022-07-29T03:45:54;100246.01;;;21.12;47.01
61914;BME280;50095;53.336;-1.488;2022-07-29T03:48:24;100249.00;;;21.16;47.35
61914;BME280;50095;53.336;-1.488;2022-07-29T03:50:53;100254.11;;;21.19;47.24
61914;BME280;50095;53.336;-1.488;2022-07-29T03:53:20;100257.03;;;21.16;47.38
61914;BME280;50095;53.336;-1.488;2022-07-29T03:55:52;100254.33;;;21.34;47.02
61914;BME280;50095;53.336;-1.488;2022-07-29T03:58:21;100252.57;;;20.88;47.51
61914;BME280;50095;53.336;-1.488;2022-07-29T04:00:50;100246.53;;;21.04;47.66
61914;BME280;50095;53.336;-1.488;2022-07-29T04:03:17;100244.95;;;21.29;46.84
61914;BME280;50095;53.336;-1.488;2022-07-29T04:05:45;100242.47;;;20.91;47.39
61914;BME280;50095;53.336;-1.488;2022-07-29T04:08:24;100240.73;;;21.02;46.76
61914;BME280;50095;53.336;-1.488;2022-07-29T04:10:52;100244.30;;;21.16;47.37
61914;BME280;50095;53.336;-1.488;2022-07-29T04:13:20;100244.98;;;20.53;47.62
61914;BME280;50095;53.336;-1.488;2022-07-29T04:15:47;100248.33;;;20.91;47.45
61914;BME280;50095;53.336;-1.488;2022-07-29T04:18:15;100249.93;;;21.18;47.37
61914;BME280;50095;53.336;-1.488;2022-07-29T04:20:42;100253.22;;;20.95;47.41
61914;BME280;50095;53.336;-1.488;2022-07-29T04:23:10;100253.07;;;20.89;47.51
61914;BME280;50095;53.336;-1.488;2022-07-29T04:25:39;100251.07;;;21.16;47.41
61914;BME280;50095;53.336;-1.488;2022-07-29T04:28:06;100253.29;;;21.25;47.26
61914;BME280;50095;53.336;-1.488;2022-07-29T04:30:35;100252.65;;;21.08;47.51
61914;BME280;50095;53.336;-1.488;2022-07-29T04:33:04;100254.11;;;21.05;47.65
61914;BME280;50095;53.336;-1.488;2022-07-29T04:35:35;100254.44;;;21.09;47.49
61914;BME280;50095;53.336;-1.488;2022-07-29T04:38:04;100253.29;;;20.63;47.55
61914;BME280;50095;53.336;-1.488;2022-07-29T04:40:31;100252.75;;;20.95;47.27
61914;BME280;50095;53.336;-1.488;2022-07-29T04:43:00;100255.58;;;21.21;47.35
61914;BME280;50095;53.336;-1.488;2022-07-29T04:45:28;100254.82;;;21.11;47.58
61914;BME280;50095;53.336;-1.488;2022-07-29T04:47:55;100254.76;;;21.24;47.32
61914;BME280;50095;53.336;-1.488;2022-07-29T04:50:23;100257.14;;;20.71;48.11
61914;BME280;50095;53.336;-1.488;2022-07-29T04:52:50;100258.31;;;20.97;48.09
61914;BME280;50095;53.336;-1.488;2022-07-29T04:55:18;100258.78;;;21.02;47.94
61914;BME280;50095;53.336;-1.488;2022-07-29T04:57:45;100257.54;;;21.01;47.95
61914;BME280;50095;53.336;-1.488;2022-07-29T05:00:13;100260.70;;;20.90;48.15
61914;BME280;50095;53.336;-1.488;2022-07-29T05:02:41;100262.48;;;20.99;47.89
61914;BME280;50095;53.336;-1.488;2022-07-29T05:05:09;100264.73;;;21.13;47.53
61914;BME280;50095;53.336;-1.488;2022-07-29T05:07:36;100266.95;;;21.11;47.40
61914;BME280;50095;53.336;-1.488;2022-07-29T05:10:04;100272.16;;;20.87;47.29
61914;BME280;50095;53.336;-1.488;2022-07-29T05:12:32;100272.31;;;21.11;47.08
61914;BME280;50095;53.336;-1.488;2022-07-29T05:15:00;100273.83;;;21.11;46.98
61914;BME280;50095;53.336;-1.488;2022-07-29T05:17:27;100275.25;;;20.56;46.88
61914;BME280;50095;53.336;-1.488;2022-07-29T05:19:55;100275.30;;;20.75;46.50
61914;BME280;50095;53.336;-1.488;2022-07-29T05:22:23;100277.09;;;21.20;46.45
61914;BME280;50095;53.336;-1.488;2022-07-29T05:24:50;100280.89;;;21.28;46.22
61914;BME280;50095;53.336;-1.488;2022-07-29T05:27:18;100280.33;;;20.79;46.14
61914;BME280;50095;53.336;-1.488;2022-07-29T05:29:45;100283.10;;;20.74;46.05
61914;BME280;50095;53.336;-1.488;2022-07-29T05:32:13;100281.48;;;20.62;46.22
61914;BME280;50095;53.336;-1.488;2022-07-29T05:34:41;100284.21;;;20.76;45.91
61914;BME280;50095;53.336;-1.488;2022-07-29T05:37:09;100284.05;;;21.29;45.79
61914;BME280;50095;53.336;-1.488;2022-07-29T05:39:37;100287.85;;;21.25;45.82
61914;BME280;50095;53.336;-1.488;2022-07-29T05:42:08;100288.30;;;20.80;45.62
61914;BME280;50095;53.336;-1.488;2022-07-29T05:44:37;100290.42;;;21.41;45.41
61914;BME280;50095;53.336;-1.488;2022-07-29T05:47:05;100291.94;;;21.35;45.36
61914;BME280;50095;53.336;-1.488;2022-07-29T05:49:32;100299.61;;;21.42;45.21
61914;BME280;50095;53.336;-1.488;2022-07-29T05:52:00;100301.25;;;21.43;45.12
61914;BME280;50095;53.336;-1.488;2022-07-29T05:54:28;100301.98;;;20.80;45.23
61914;BME280;50095;53.336;-1.488;2022-07-29T05:56:55;100303.40;;;20.92;45.03
61914;BME280;50095;53.336;-1.488;2022-07-29T05:59:23;100302.38;;;21.22;44.93
61914;BME280;50095;53.336;-1.488;2022-07-29T06:01:50;100304.45;;;21.29;44.80
61914;BME280;50095;53.336;-1.488;2022-07-29T06:04:18;100305.70;;;20.96;44.93
61914;BME280;50095;53.336;-1.488;2022-07-29T06:06:47;100304.01;;;21.31;45.16
61914;BME280;50095;53.336;-1.488;2022-07-29T06:09:14;100306.67;;;20.90;45.13
61914;BME280;50095;53.336;-1.488;2022-07-29T06:11:41;100306.78;;;21.07;45.31
61914;BME280;50095;53.336;-1.488;2022-07-29T06:14:08;100305.88;;;20.82;45.30
61914;BME280;50095;53.336;-1.488;2022-07-29T06:16:36;100306.11;;;21.10;45.29
61914;BME280;50095;53.336;-1.488;2022-07-29T06:19:04;100310.03;;;21.18;45.21
61914;BME280;50095;53.336;-1.488;2022-07-29T06:21:31;100307.29;;;21.30;45.36
61914;BME280;50095;53.336;-1.488;2022-07-29T06:23:59;100309.58;;;20.90;45.25
61914;BME280;50095;53.336;-1.488;2022-07-29T06:26:27;100309.67;;;21.19;45.24
61914;BME280;50095;53.336;-1.488;2022-07-29T06:28:54;100311.74;;;21.09;45.03
61914;BME280;50095;53.336;-1.488;2022-07-29T06:31:22;100311.34;;;21.65;44.91
61914;BME280;50095;53.336;-1.488;2022-07-29T06:33:49;100310.87;;;21.35;45.08
61914;BME280;50095;53.336;-1.488;2022-07-29T06:36:17;100309.84;;;21.32;45.16
61914;BME280;50095;53.336;-1.488;2022-07-29T06:38:44;100313.44;;;21.56;45.19
61914;BME280;50095;53.336;-1.488;2022-07-29T06:41:12;100313.25;;;21.06;45.20
61914;BME280;50095;53.336;-1.488;2022-07-29T06:43:41;100316.05;;;21.32;45.30
61914;BME280;50095;53.336;-1.488;2022-07-29T06:46:09;100317.39;;;21.59;45.22
61914;BME280;50095;53.336;-1.488;2022-07-29T06:48:37;100317.70;;;20.79;45.97
61914;BME280;50095;53.336;-1.488;2022-07-29T06:51:05;100319.44;;;21.34;45.24
61914;BME280;50095;53.336;-1.488;2022-07-29T06:53:33;100319.53;;;21.10;45.31
61914;BME280;50095;53.336;-1.488;2022-07-29T06:56:02;100320.80;;;21.49;45.06
61914;BME280;50095;53.336;-1.488;2022-07-29T06:58:30;100325.49;;;21.26;45.04
61914;BME280;50095;53.336;-1.488;2022-07-29T07:01:00;100324.58;;;21.23;45.07
61914;BME280;50095;53.336;-1.488;2022-07-29T07:03:28;100322.85;;;21.36;44.92
61914;BME280;50095;53.336;-1.488;2022-07-29T07:05:56;100315.62;;;21.22;45.13
61914;BME280;50095;53.336;-1.488;2022-07-29T07:08:24;100315.62;;;21.29;45.03
61914;BME280;50095;53.336;-1.488;2022-07-29T07:10:52;100314.56;;;21.22;45.48
61914;BME280;50095;53.336;-1.488;2022-07-29T07:13:20;100320.12;;;21.32;45.87
61914;BME280;50095;53.336;-1.488;2022-07-29T07:15:48;100324.62;;;21.34;45.48
61914;BME280;50095;53.336;-1.488;2022-07-29T07:18:15;100326.96;;;21.17;45.33
61914;BME280;50095;53.336;-1.488;2022-07-29T07:20:43;100329.61;;;21.25;45.16
61914;BME280;50095;53.336;-1.488;2022-07-29T07:23:11;100329.91;;;21.27;45.18
61914;BME280;50095;53.336;-1.488;2022-07-29T07:25:39;100327.22;;;21.00;45.23
61914;BME280;50095;53.336;-1.488;2022-07-29T07:28:06;100328.78;;;21.68;45.28
61914;BME280;50095;53.336;-1.488;2022-07-29T07:30:35;100332.77;;;21.60;45.10
61914;BME280;50095;53.336;-1.488;2022-07-29T07:33:02;100333.57;;;21.26;45.24
61914;BME280;50095;53.336;-1.488;2022-07-29T07:35:29;100335.67;;;21.30;45.16
61914;BME280;50095;53.336;-1.488;2022-07-29T07:37:59;100338.19;;;21.46;45.41
61914;BME280;50095;53.336;-1.488;2022-07-29T07:40:26;100336.69;;;20.94;46.85
61914;BME280;50095;53.336;-1.488;2022-07-29T07:42:54;100337.42;;;21.24;46.70
61914;BME280;50095;53.336;-1.488;2022-07-29T07:45:22;100338.94;;;21.56;46.36
61914;BME280;50095;53.336;-1.488;2022-07-29T07:47:49;100335.12;;;21.69;46.26
61914;BME280;50095;53.336;-1.488;2022-07-29T07:50:17;100337.74;;;21.72;46.38
61914;BME280;50095;53.336;-1.488;2022-07-29T07:52:48;100339.49;;;21.79;46.37
61914;BME280;50095;53.336;-1.488;2022-07-29T07:55:16;100339.10;;;21.84;46.51
61914;BME280;50095;53.336;-1.488;2022-07-29T07:57:44;100339.03;;;21.35;46.53
61914;BME280;50095;53.336;-1.488;2022-07-29T08:00:13;100341.97;;;22.04;46.17
61914;BME280;50095;53.336;-1.488;2022-07-29T08:02:41;100342.95;;;22.05;46.22
61914;BME280;50095;53.336;-1.488;2022-07-29T08:05:08;100342.46;;;21.82;46.13
61914;BME280;50095;53.336;-1.488;2022-07-29T08:07:36;100343.14;;;21.82;46.08
61914;BME280;50095;53.336;-1.488;2022-07-29T08:10:04;100340.86;;;21.82;45.67
61914;BME280;50095;53.336;-1.488;2022-07-29T08:12:32;100337.56;;;22.22;45.41
61914;BME280;50095;53.336;-1.488;2022-07-29T08:14:59;100335.53;;;22.40;45.01
61914;BME280;50095;53.336;-1.488;2022-07-29T08:17:27;100335.72;;;22.14;45.10
61914;BME280;50095;53.336;-1.488;2022-07-29T08:19:54;100333.42;;;22.76;44.25
61914;BME280;50095;53.336;-1.488;2022-07-29T08:22:22;100336.23;;;22.44;44.41
61914;BME280;50095;53.336;-1.488;2022-07-29T08:24:49;100338.63;;;22.33;44.55
61914;BME280;50095;53.336;-1.488;2022-07-29T08:27:16;100339.77;;;22.32;45.00
61914;BME280;50095;53.336;-1.488;2022-07-29T08:29:44;100339.50;;;22.10;45.31
61914;BME280;50095;53.336;-1.488;2022-07-29T08:32:11;100340.31;;;22.44;45.65
61914;BME280;50095;53.336;-1.488;2022-07-29T08:34:39;100339.54;;;22.41;45.46
61914;BME280;50095;53.336;-1.488;2022-07-29T08:37:06;100337.40;;;22.17;45.89
61914;BME280;50095;53.336;-1.488;2022-07-29T08:39:33;100336.25;;;22.23;45.66
61914;BME280;50095;53.336;-1.488;2022-07-29T08:42:01;100336.51;;;22.13;45.85
61914;BME280;50095;53.336;-1.488;2022-07-29T08:44:29;100338.61;;;22.29;45.54
61914;BME280;50095;53.336;-1.488;2022-07-29T08:46:56;100338.85;;;22.03;46.12
61914;BME280;50095;53.336;-1.488;2022-07-29T08:49:24;100338.28;;;21.86;46.37
61914;BME280;50095;53.336;-1.488;2022-07-29T08:51:51;100339.06;;;21.94;46.40
61914;BME280;50095;53.336;-1.488;2022-07-29T08:54:21;100340.18;;;22.16;46.16
61914;BME280;50095;53.336;-1.488;2022-07-29T08:56:50;100339.52;;;22.47;45.76
61914;BME280;50095;53.336;-1.488;2022-07-29T08:59:20;100338.81;;;22.55;45.68
61914;BME280;50095;53.336;-1.488;2022-07-29T09:01:51;100336.38;;;22.46;45.88
61914;BME280;50095;53.336;-1.488;2022-07-29T09:04:20;100334.95;;;22.55;45.75
61914;BME280;50095;53.336;-1.488;2022-07-29T09:06:51;100333.22;;;22.76;45.51
61914;BME280;50095;53.336;-1.488;2022-07-29T09:09:18;100326.42;;;23.05;44.55
61914;BME280;50095;53.336;-1.488;2022-07-29T09:11:45;100328.12;;;23.18;44.64
61914;BME280;50095;53.336;-1.488;2022-07-29T09:14:13;100325.75;;;23.10;44.43
61914;BME280;50095;53.336;-1.488;2022-07-29T09:16:51;100324.80;;;22.72;44.01
61914;BME280;50095;53.336;-1.488;2022-07-29T09:19:26;100322.90;;;23.45;43.85
61914;BME280;50095;53.336;-1.488;2022-07-29T09:21:55;100324.78;;;23.55;43.59
61914;BME280;50095;53.336;-1.488;2022-07-29T09:24:23;100323.74;;;23.92;42.79
61914;BME280;50095;53.336;-1.488;2022-07-29T09:26:51;100322.22;;;23.85;43.15
61914;BME280;50095;53.336;-1.488;2022-07-29T09:29:20;100327.67;;;22.32;44.82
61914;BME280;50095;53.336;-1.488;2022-07-29T09:31:49;100321.84;;;22.94;44.14
61914;BME280;50095;53.336;-1.488;2022-07-29T09:34:22;100323.99;;;24.17;42.47
61914;BME280;50095;53.336;-1.488;2022-07-29T09:36:52;100326.31;;;24.50;41.98
61914;BME280;50095;53.336;-1.488;2022-07-29T09:39:29;100328.53;;;24.48;41.93
61914;BME280;50095;53.336;-1.488;2022-07-29T09:41:58;100329.01;;;24.64;41.56
61914;BME280;50095;53.336;-1.488;2022-07-29T09:44:26;100331.75;;;24.54;41.15
61914;BME280;50095;53.336;-1.488;2022-07-29T09:46:56;100331.21;;;24.87;41.01
61914;BME280;50095;53.336;-1.488;2022-07-29T09:49:23;100331.60;;;24.77;40.81
61914;BME280;50095;53.336;-1.488;2022-07-29T09:52:08;100327.14;;;24.76;40.78
61914;BME280;50095;53.336;-1.488;2022-07-29T09:54:36;100323.18;;;25.24;40.30
61914;BME280;50095;53.336;-1.488;2022-07-29T09:57:06;100325.29;;;24.66;40.07
61914;BME280;50095;53.336;-1.488;2022-07-29T09:59:34;100324.19;;;24.86;40.26
61914;BME280;50095;53.336;-1.488;2022-07-29T10:02:01;100322.71;;;25.29;40.25
61914;BME280;50095;53.336;-1.488;2022-07-29T10:04:39;100324.52;;;25.42;39.68
61914;BME280;50095;53.336;-1.488;2022-07-29T10:07:07;100327.73;;;25.77;39.55
61914;BME280;50095;53.336;-1.488;2022-07-29T10:09:35;100328.38;;;25.40;39.81
61914;BME280;50095;53.336;-1.488;2022-07-29T10:12:04;100319.12;;;25.69;38.88
61914;BME280;50095;53.336;-1.488;2022-07-29T10:14:32;100321.53;;;25.11;39.00
61914;BME280;50095;53.336;-1.488;2022-07-29T10:17:00;100319.44;;;25.93;38.60
61914;BME280;50095;53.336;-1.488;2022-07-29T10:19:29;100323.46;;;25.36;38.20
61914;BME280;50095;53.336;-1.488;2022-07-29T10:21:58;100325.57;;;25.57;38.59
61914;BME280;50095;53.336;-1.488;2022-07-29T10:24:27;100320.94;;;25.97;37.56
61914;BME280;50095;53.336;-1.488;2022-07-29T10:26:55;100321.32;;;25.64;37.49
61914;BME280;50095;53.336;-1.488;2022-07-29T10:29:22;100324.81;;;25.58;38.72
61914;BME280;50095;53.336;-1.488;2022-07-29T10:31:55;100325.54;;;24.54;39.28
61914;BME280;50095;53.336;-1.488;2022-07-29T10:34:34;100323.99;;;25.73;38.78
61914;BME280;50095;53.336;-1.488;2022-07-29T10:37:17;100325.50;;;25.89;37.92
61914;BME280;50095;53.336;-1.488;2022-07-29T10:39:56;100326.14;;;25.73;38.12
61914;BME280;50095;53.336;-1.488;2022-07-29T10:42:29;100323.74;;;25.57;37.80
61914;BME280;50095;53.336;-1.488;2022-07-29T10:44:57;100321.29;;;25.78;37.86
61914;BME280;50095;53.336;-1.488;2022-07-29T10:47:26;100323.59;;;24.50;39.76
61914;BME280;50095;53.336;-1.488;2022-07-29T10:50:04;100328.46;;;25.59;39.03
61914;BME280;50095;53.336;-1.488;2022-07-29T10:53:05;100325.17;;;26.07;38.41
61914;BME280;50095;53.336;-1.488;2022-07-29T10:55:34;100322.75;;;25.86;38.29
61914;BME280;50095;53.336;-1.488;2022-07-29T10:58:13;100322.69;;;26.42;36.94
61914;BME280;50095;53.336;-1.488;2022-07-29T11:00:41;100323.16;;;26.51;37.27
61914;BME280;50095;53.336;-1.488;2022-07-29T11:03:08;100320.09;;;26.73;37.14
61914;BME280;50095;53.336;-1.488;2022-07-29T11:05:53;100318.45;;;26.23;37.31
61914;BME280;50095;53.336;-1.488;2022-07-29T11:08:27;100319.20;;;26.52;37.22
61914;BME280;50095;53.336;-1.488;2022-07-29T11:11:59;100320.14;;;26.26;37.18
61914;BME280;50095;53.336;-1.488;2022-07-29T11:14:59;100325.16;;;25.26;38.44
61914;BME280;50095;53.336;-1.488;2022-07-29T11:17:27;100323.15;;;25.65;38.07
61914;BME280;50095;53.336;-1.488;2022-07-29T11:20:31;100324.67;;;26.05;38.04
61914;BME280;50095;53.336;-1.488;2022-07-29T11:22:59;100327.51;;;25.39;38.56
61914;BME280;50095;53.336;-1.488;2022-07-29T11:25:27;100326.15;;;25.59;38.38
61914;BME280;50095;53.336;-1.488;2022-07-29T11:28:02;100327.47;;;25.69;38.34
61914;BME280;50095;53.336;-1.488;2022-07-29T11:30:53;100330.77;;;25.21;39.15
61914;BME280;50095;53.336;-1.488;2022-07-29T11:33:29;100334.31;;;25.54;38.81
61914;BME280;50095;53.336;-1.488;2022-07-29T11:36:08;100334.44;;;24.61;39.52
61914;BME280;50095;53.336;-1.488;2022-07-29T11:38:36;100330.28;;;24.66;40.19
61914;BME280;50095;53.336;-1.488;2022-07-29T11:41:35;100330.09;;;25.25;39.64
61914;BME280;50095;53.336;-1.488;2022-07-29T11:44:03;100328.80;;;24.95;39.48
61914;BME280;50095;53.336;-1.488;2022-07-29T11:46:48;100326.78;;;24.41;39.86
61914;BME280;50095;53.336;-1.488;2022-07-29T11:49:20;100323.77;;;23.91;40.07
61914;BME280;50095;53.336;-1.488;2022-07-29T11:51:51;100315.75;;;25.10;39.46
61914;BME280;50095;53.336;-1.488;2022-07-29T11:54:24;100312.85;;;24.44;40.19
61914;BME280;50095;53.336;-1.488;2022-07-29T11:56:52;100311.41;;;25.14;39.32
61914;BME280;50095;53.336;-1.488;2022-07-29T11:59:21;100311.18;;;25.14;39.51
61914;BME280;50095;53.336;-1.488;2022-07-29T12:01:52;100311.37;;;24.87;38.73
61914;BME280;50095;53.336;-1.488;2022-07-29T12:04:19;100309.93;;;24.65;39.04
61914;BME280;50095;53.336;-1.488;2022-07-29T12:06:49;100310.95;;;25.15;39.18
61914;BME280;50095;53.336;-1.488;2022-07-29T12:09:17;100311.91;;;25.52;39.24
61914;BME280;50095;53.336;-1.488;2022-07-29T12:11:45;100310.22;;;25.87;38.63
61914;BME280;50095;53.336;-1.488;2022-07-29T12:14:25;100310.20;;;26.04;38.28
61914;BME280;50095;53.336;-1.488;2022-07-29T12:16:53;100306.38;;;26.34;37.98
61914;BME280;50095;53.336;-1.488;2022-07-29T12:19:20;100310.61;;;26.06;37.94
61914;BME280;50095;53.336;-1.488;2022-07-29T12:21:49;100309.27;;;26.18;37.56
61914;BME280;50095;53.336;-1.488;2022-07-29T12:24:18;100306.15;;;26.89;37.38
61914;BME280;50095;53.336;-1.488;2022-07-29T12:26:54;100302.27;;;26.52;37.93
61914;BME280;50095;53.336;-1.488;2022-07-29T12:29:21;100303.57;;;26.88;37.12
61914;BME280;50095;53.336;-1.488;2022-07-29T12:31:52;100298.45;;;26.56;37.53
61914;BME280;50095;53.336;-1.488;2022-07-29T12:34:22;100290.82;;;26.76;37.54
61914;BME280;50095;53.336;-1.488;2022-07-29T12:36:50;100292.75;;;26.98;36.90
61914;BME280;50095;53.336;-1.488;2022-07-29T12:39:18;100291.43;;;26.75;37.15
61914;BME280;50095;53.336;-1.488;2022-07-29T12:41:45;100292.88;;;26.99;37.17
61914;BME280;50095;53.336;-1.488;2022-07-29T12:44:13;100292.97;;;26.72;37.08
61914;BME280;50095;53.336;-1.488;2022-07-29T12:46:40;100295.40;;;26.67;37.13
61914;BME280;50095;53.336;-1.488;2022-07-29T12:49:08;100295.44;;;26.99;37.12
61914;BME280;50095;53.336;-1.488;2022-07-29T12:51:37;100292.36;;;26.80;36.47
61914;BME280;50095;53.336;-1.488;2022-07-29T12:54:06;100297.37;;;27.08;36.87